sensor_id;sensor_type;location;lat;lon;timestamp;temperature;humidity
39503;DHT22;26970;49.900;10.774;2022-08-01T00:00:12;19.90;99.90
39503;DHT22;26970;49.900;10.774;2022-08-01T00:02:37;20.00;99.90
39503;DHT22;26970;49.900;10.774;2022-08-01T00:05:03;20.00;99.90
39503;DHT22;26970;49.900;10.774;2022-08-01T00:07:31;20.00;99.90
39503;DHT22;26970;49.900;10.774;2022-08-01T00:09:57;20.00;99.90
39503;DHT22;26970;49.900;10.774;2022-08-01T00:12:22;20.20;99.90
39503;DHT22;26970;49.900;10.774;2022-08-01T00:14:48;19.80;99.90
39503;DHT22;26970;49.900;10.774;2022-08-01T00:17:14;19.70;99.90
39503;DHT22;26970;49.900;10.774;2022-08-01T00:19:39;19.50;99.90
39503;DHT22;26970;49.900;10.774;2022-08-01T00:22:05;19.40;99.90
39503;DHT22;26970;49.900;10.774;2022-08-01T00:24:31;19.20;99.90
39503;DHT22;26970;49.900;10.774;2022-08-01T00:26:56;19.20;99.90
39503;DHT22;26970;49.900;10.774;2022-08-01T00:29:22;19.20;99.90
39503;DHT22;26970;49.900;10.774;2022-08-01T00:31:47;19.00;99.90
39503;DHT22;26970;49.900;10.774;2022-08-01T00:34:13;19.00;99.90
39503;DHT22;26970;49.900;10.774;2022-08-01T00:36:38;19.10;99.90
39503;DHT22;26970;49.900;10.774;2022-08-01T00:39:04;19.20;99.90
39503;DHT22;26970;49.900;10.774;2022-08-01T00:41:29;19.20;99.90
39503;DHT22;26970;49.900;10.774;2022-08-01T00:43:55;19.30;99.90
39503;DHT22;26970;49.900;10.774;2022-08-01T00:46:21;19.50;99.90
39503;DHT22;26970;49.900;10.774;2022-08-01T00:48:46;19.60;99.90
39503;DHT22;26970;49.900;10.774;2022-08-01T00:51:12;19.80;99.90
39503;DHT22;26970;49.900;10.774;2022-08-01T00:53:39;19.90;99.90
39503;DHT22;26970;49.900;10.774;2022-08-01T00:56:04;20.00;99.90
39503;DHT22;26970;49.900;10.774;2022-08-01T00:58:31;20.00;99.90
39503;DHT22;26970;49.900;10.774;2022-08-01T01:00:59;20.10;99.90
39503;DHT22;26970;49.900;10.774;2022-08-01T01:03:24;20.10;99.90
39503;DHT22;26970;49.900;10.774;2022-08-01T01:06:13;20.20;99.90
39503;DHT22;26970;49.900;10.774;2022-08-01T01:08:46;20.30;99.90
39503;DHT22;26970;49.900;10.774;2022-08-01T01:11:26;20.40;99.90
39503;DHT22;26970;49.900;10.774;2022-08-01T01:14:00;20.70;99.90
39503;DHT22;26970;49.900;10.774;2022-08-01T01:16:27;20.70;99.90
39503;DHT22;26970;49.900;10.774;2022-08-01T01:18:59;20.80;99.90
39503;DHT22;26970;49.900;10.774;2022-08-01T01:30:30;21.00;99.90
39503;DHT22;26970;49.900;10.774;2022-08-01T01:33:00;20.90;99.90
39503;DHT22;26970;49.900;10.774;2022-08-01T01:35:30;20.90;99.90
39503;DHT22;26970;49.900;10.774;2022-08-01T01:38:22;21.00;99.90
39503;DHT22;26970;49.900;10.774;2022-08-01T01:40:50;20.90;99.90
39503;DHT22;26970;49.900;10.774;2022-08-01T01:43:18;20.90;99.90
39503;DHT22;26970;49.900;10.774;2022-08-01T01:45:45;20.80;99.90
39503;DHT22;26970;49.900;10.774;2022-08-01T01:48:14;20.80;99.90
39503;DHT22;26970;49.900;10.774;2022-08-01T01:50:42;20.70;99.90
39503;DHT22;26970;49.900;10.774;2022-08-01T01:53:12;20.80;99.90
39503;DHT22;26970;49.900;10.774;2022-08-01T01:55:39;20.70;99.90
39503;DHT22;26970;49.900;10.774;2022-08-01T01:58:07;20.60;99.90
39503;DHT22;26970;49.900;10.774;2022-08-01T02:00:34;20.60;99.90
39503;DHT22;26970;49.900;10.774;2022-08-01T02:03:02;20.50;99.90
39503;DHT22;26970;49.900;10.774;2022-08-01T02:05:29;20.40;99.90
39503;DHT22;26970;49.900;10.774;2022-08-01T02:07:55;20.40;99.90
39503;DHT22;26970;49.900;10.774;2022-08-01T02:10:22;20.40;99.90
39503;DHT22;26970;49.900;10.774;2022-08-01T02:12:49;20.30;99.90
39503;DHT22;26970;49.900;10.774;2022-08-01T02:15:16;20.20;99.90
39503;DHT22;26970;49.900;10.774;2022-08-01T02:17:45;20.10;99.90
39503;DHT22;26970;49.900;10.774;2022-08-01T02:20:12;20.10;99.90
39503;DHT22;26970;49.900;10.774;2022-08-01T02:22:48;20.00;99.90
39503;DHT22;26970;49.900;10.774;2022-08-01T02:25:25;20.00;99.90
39503;DHT22;26970;49.900;10.774;2022-08-01T02:27:56;20.00;99.90
39503;DHT22;26970;49.900;10.774;2022-08-01T02:30:25;20.00;99.90
39503;DHT22;26970;49.900;10.774;2022-08-01T02:33:33;19.90;99.90
39503;DHT22;26970;49.900;10.774;2022-08-01T02:40:04;19.80;99.90
39503;DHT22;26970;49.900;10.774;2022-08-01T02:43:02;19.50;99.90
39503;DHT22;26970;49.900;10.774;2022-08-01T02:45:29;19.50;99.90
39503;DHT22;26970;49.900;10.774;2022-08-01T02:48:12;19.40;99.90
39503;DHT22;26970;49.900;10.774;2022-08-01T02:50:48;19.40;99.90
39503;DHT22;26970;49.900;10.774;2022-08-01T02:53:23;19.40;99.90
39503;DHT22;26970;49.900;10.774;2022-08-01T02:56:09;19.50;99.90
39503;DHT22;26970;49.900;10.774;2022-08-01T02:58:51;19.60;99.90
39503;DHT22;26970;49.900;10.774;2022-08-01T03:01:30;19.60;99.90
39503;DHT22;26970;49.900;10.774;2022-08-01T03:04:07;19.50;99.90
39503;DHT22;26970;49.900;10.774;2022-08-01T03:06:33;19.40;99.90
39503;DHT22;26970;49.900;10.774;2022-08-01T03:09:25;19.20;99.90
39503;DHT22;26970;49.900;10.774;2022-08-01T03:12:17;19.10;99.90
39503;DHT22;26970;49.900;10.774;2022-08-01T03:14:47;19.10;99.90
39503;DHT22;26970;49.900;10.774;2022-08-01T03:17:23;19.00;99.90
39503;DHT22;26970;49.900;10.774;2022-08-01T03:20:06;19.00;99.90
39503;DHT22;26970;49.900;10.774;2022-08-01T03:22:45;19.00;99.90
39503;DHT22;26970;49.900;10.774;2022-08-01T03:25:27;18.90;99.90
39503;DHT22;26970;49.900;10.774;2022-08-01T03:27:58;18.80;99.90
39503;DHT22;26970;49.900;10.774;2022-08-01T03:30:38;18.80;99.90
39503;DHT22;26970;49.900;10.774;2022-08-01T03:33:15;18.50;99.90
39503;DHT22;26970;49.900;10.774;2022-08-01T03:35:49;18.40;99.90
39503;DHT22;26970;49.900;10.774;2022-08-01T03:38:19;18.50;99.90
39503;DHT22;26970;49.900;10.774;2022-08-01T03:40:57;18.50;99.90
39503;DHT22;26970;49.900;10.774;2022-08-01T03:43:37;18.50;99.90
39503;DHT22;26970;49.900;10.774;2022-08-01T03:46:20;18.50;99.90
39503;DHT22;26970;49.900;10.774;2022-08-01T03:48:50;18.40;99.90
39503;DHT22;26970;49.900;10.774;2022-08-01T03:51:27;18.40;99.90
39503;DHT22;26970;49.900;10.774;2022-08-01T03:54:00;18.30;99.90
39503;DHT22;26970;49.900;10.774;2022-08-01T03:56:27;18.30;99.90
39503;DHT22;26970;49.900;10.774;2022-08-01T03:58:59;18.40;99.90
39503;DHT22;26970;49.900;10.774;2022-08-01T04:01:33;18.60;99.90
39503;DHT22;26970;49.900;10.774;2022-08-01T04:04:02;18.80;99.90
39503;DHT22;26970;49.900;10.774;2022-08-01T04:06:30;19.10;99.90
39503;DHT22;26970;49.900;10.774;2022-08-01T04:08:59;19.20;99.90
39503;DHT22;26970;49.900;10.774;2022-08-01T04:11:30;19.40;99.90
39503;DHT22;26970;49.900;10.774;2022-08-01T04:13:58;19.50;99.90
39503;DHT22;26970;49.900;10.774;2022-08-01T04:16:49;19.60;99.90
39503;DHT22;26970;49.900;10.774;2022-08-01T04:19:39;19.60;99.90
39503;DHT22;26970;49.900;10.774;2022-08-01T04:22:14;19.50;99.90
39503;DHT22;26970;49.900;10.774;2022-08-01T04:25:04;19.50;99.90
39503;DHT22;26970;49.900;10.774;2022-08-01T04:28:01;19.50;99.90
39503;DHT22;26970;49.900;10.774;2022-08-01T04:30:47;19.50;99.90
39503;DHT22;26970;49.900;10.774;2022-08-01T04:33:38;19.60;99.90
39503;DHT22;26970;49.900;10.774;2022-08-01T04:36:15;19.40;99.90
39503;DHT22;26970;49.900;10.774;2022-08-01T04:38:54;19.50;99.90
39503;DHT22;26970;49.900;10.774;2022-08-01T04:41:42;19.50;99.90
39503;DHT22;26970;49.900;10.774;2022-08-01T04:44:25;19.40;99.90
39503;DHT22;26970;49.900;10.774;2022-08-01T04:46:57;19.40;99.90
39503;DHT22;26970;49.900;10.774;2022-08-01T04:49:35;19.30;99.90
39503;DHT22;26970;49.900;10.774;2022-08-01T04:52:06;19.20;99.90
39503;DHT22;26970;49.900;10.774;2022-08-01T04:54:38;19.30;99.90
39503;DHT22;26970;49.900;10.774;2022-08-01T04:57:13;19.30;99.90
39503;DHT22;26970;49.900;10.774;2022-08-01T04:59:42;19.40;99.90
39503;DHT22;26970;49.900;10.774;2022-08-01T05:02:39;19.40;99.90
39503;DHT22;26970;49.900;10.774;2022-08-01T05:05:14;19.40;99.90
39503;DHT22;26970;49.900;10.774;2022-08-01T05:07:47;19.40;99.90
39503;DHT22;26970;49.900;10.774;2022-08-01T05:10:25;19.40;99.90
39503;DHT22;26970;49.900;10.774;2022-08-01T05:12:59;19.50;99.90
39503;DHT22;26970;49.900;10.774;2022-08-01T05:15:27;19.50;99.90
39503;DHT22;26970;49.900;10.774;2022-08-01T05:17:58;19.60;99.90
39503;DHT22;26970;49.900;10.774;2022-08-01T05:20:34;19.60;99.90
39503;DHT22;26970;49.900;10.774;2022-08-01T05:23:11;19.60;99.90
39503;DHT22;26970;49.900;10.774;2022-08-01T05:25:50;19.70;99.90
39503;DHT22;26970;49.900;10.774;2022-08-01T05:28:27;19.60;99.90
39503;DHT22;26970;49.900;10.774;2022-08-01T05:31:11;19.70;99.90
39503;DHT22;26970;49.900;10.774;2022-08-01T05:34:02;19.70;99.90
39503;DHT22;26970;49.900;10.774;2022-08-01T05:36:50;19.70;99.90
39503;DHT22;26970;49.900;10.774;2022-08-01T05:39:38;19.80;99.90
39503;DHT22;26970;49.900;10.774;2022-08-01T05:42:11;19.90;99.90
39503;DHT22;26970;49.900;10.774;2022-08-01T05:44:42;19.90;99.90
39503;DHT22;26970;49.900;10.774;2022-08-01T05:47:17;20.00;99.90
39503;DHT22;26970;49.900;10.774;2022-08-01T05:50:03;20.00;99.90
39503;DHT22;26970;49.900;10.774;2022-08-01T05:52:39;19.90;99.90
39503;DHT22;26970;49.900;10.774;2022-08-01T05:55:11;19.90;99.90
39503;DHT22;26970;49.900;10.774;2022-08-01T05:58:00;19.80;99.90
39503;DHT22;26970;49.900;10.774;2022-08-01T06:00:48;19.70;99.90
39503;DHT22;26970;49.900;10.774;2022-08-01T06:03:16;19.90;99.90
39503;DHT22;26970;49.900;10.774;2022-08-01T06:05:49;20.00;99.90
39503;DHT22;26970;49.900;10.774;2022-08-01T06:08:16;20.10;99.90
39503;DHT22;26970;49.900;10.774;2022-08-01T06:10:44;20.10;99.90
39503;DHT22;26970;49.900;10.774;2022-08-01T06:13:29;20.10;99.90
39503;DHT22;26970;49.900;10.774;2022-08-01T06:16:04;20.20;99.90
39503;DHT22;26970;49.900;10.774;2022-08-01T06:18:57;20.20;99.90
39503;DHT22;26970;49.900;10.774;2022-08-01T06:21:40;20.30;99.90
39503;DHT22;26970;49.900;10.774;2022-08-01T06:24:08;20.40;99.90
39503;DHT22;26970;49.900;10.774;2022-08-01T06:26:36;20.40;99.90
39503;DHT22;26970;49.900;10.774;2022-08-01T06:29:12;20.50;99.90
39503;DHT22;26970;49.900;10.774;2022-08-01T06:31:48;20.60;99.90
39503;DHT22;26970;49.900;10.774;2022-08-01T06:34:22;20.80;99.90
39503;DHT22;26970;49.900;10.774;2022-08-01T06:37:17;20.80;99.90
39503;DHT22;26970;49.900;10.774;2022-08-01T06:39:52;20.90;99.90
39503;DHT22;26970;49.900;10.774;2022-08-01T06:42:41;20.80;99.90
39503;DHT22;26970;49.900;10.774;2022-08-01T06:45:24;20.70;99.90
39503;DHT22;26970;49.900;10.774;2022-08-01T06:48:09;20.80;99.90
39503;DHT22;26970;49.900;10.774;2022-08-01T06:50:35;20.80;99.90
39503;DHT22;26970;49.900;10.774;2022-08-01T06:53:01;21.00;99.90
39503;DHT22;26970;49.900;10.774;2022-08-01T06:55:36;21.20;99.90
39503;DHT22;26970;49.900;10.774;2022-08-01T06:58:06;21.60;99.90
39503;DHT22;26970;49.900;10.774;2022-08-01T07:00:36;21.50;99.90
39503;DHT22;26970;49.900;10.774;2022-08-01T07:03:36;21.70;99.90
39503;DHT22;26970;49.900;10.774;2022-08-01T07:06:13;21.80;99.90
39503;DHT22;26970;49.900;10.774;2022-08-01T07:08:42;21.80;99.90
39503;DHT22;26970;49.900;10.774;2022-08-01T07:14:29;21.90;99.90
39503;DHT22;26970;49.900;10.774;2022-08-01T07:17:05;22.70;99.90
39503;DHT22;26970;49.900;10.774;2022-08-01T07:19:34;22.80;99.90
39503;DHT22;26970;49.900;10.774;2022-08-01T07:22:00;23.20;99.90
39503;DHT22;26970;49.900;10.774;2022-08-01T07:24:31;22.90;99.90
39503;DHT22;26970;49.900;10.774;2022-08-01T07:26:57;22.90;99.90
39503;DHT22;26970;49.900;10.774;2022-08-01T07:29:32;23.00;99.90
39503;DHT22;26970;49.900;10.774;2022-08-01T07:32:01;23.20;99.90
39503;DHT22;26970;49.900;10.774;2022-08-01T07:34:37;23.20;99.90
39503;DHT22;26970;49.900;10.774;2022-08-01T07:37:20;23.10;99.90
39503;DHT22;26970;49.900;10.774;2022-08-01T07:39:48;22.80;99.90
39503;DHT22;26970;49.900;10.774;2022-08-01T07:42:16;22.60;99.90
39503;DHT22;26970;49.900;10.774;2022-08-01T07:44:42;22.50;99.90
39503;DHT22;26970;49.900;10.774;2022-08-01T07:47:10;22.40;99.90
39503;DHT22;26970;49.900;10.774;2022-08-01T07:49:48;22.30;99.90
39503;DHT22;26970;49.900;10.774;2022-08-01T07:52:23;22.60;99.90
39503;DHT22;26970;49.900;10.774;2022-08-01T07:55:04;22.60;99.90
39503;DHT22;26970;49.900;10.774;2022-08-01T07:57:58;22.50;99.90
39503;DHT22;26970;49.900;10.774;2022-08-01T08:00:26;22.50;99.90
39503;DHT22;26970;49.900;10.774;2022-08-01T08:02:54;22.80;99.90
39503;DHT22;26970;49.900;10.774;2022-08-01T08:05:33;23.00;99.90
39503;DHT22;26970;49.900;10.774;2022-08-01T08:08:01;23.10;99.90
39503;DHT22;26970;49.900;10.774;2022-08-01T08:10:46;23.30;99.90
39503;DHT22;26970;49.900;10.774;2022-08-01T08:13:29;23.40;99.90
39503;DHT22;26970;49.900;10.774;2022-08-01T08:16:15;23.50;99.90
39503;DHT22;26970;49.900;10.774;2022-08-01T08:18:43;23.40;99.90
39503;DHT22;26970;49.900;10.774;2022-08-01T08:21:34;23.40;99.90
39503;DHT22;26970;49.900;10.774;2022-08-01T08:24:05;23.40;99.90
39503;DHT22;26970;49.900;10.774;2022-08-01T08:26:54;23.20;99.90
39503;DHT22;26970;49.900;10.774;2022-08-01T08:29:21;23.30;99.90
39503;DHT22;26970;49.900;10.774;2022-08-01T08:31:55;23.20;99.90
39503;DHT22;26970;49.900;10.774;2022-08-01T08:34:42;23.30;99.90
39503;DHT22;26970;49.900;10.774;2022-08-01T08:37:10;23.30;99.90
39503;DHT22;26970;49.900;10.774;2022-08-01T08:39:45;23.40;99.90
39503;DHT22;26970;49.900;10.774;2022-08-01T08:42:19;23.70;99.90
39503;DHT22;26970;49.900;10.774;2022-08-01T08:44:52;23.70;99.90
39503;DHT22;26970;49.900;10.774;2022-08-01T08:47:59;23.80;99.90
39503;DHT22;26970;49.900;10.774;2022-08-01T08:50:36;24.10;99.90
39503;DHT22;26970;49.900;10.774;2022-08-01T08:56:13;24.10;99.90
39503;DHT22;26970;49.900;10.774;2022-08-01T08:58:50;24.00;99.90
39503;DHT22;26970;49.900;10.774;2022-08-01T09:01:16;23.60;99.90
39503;DHT22;26970;49.900;10.774;2022-08-01T09:03:44;23.90;99.90
39503;DHT22;26970;49.900;10.774;2022-08-01T09:06:25;24.30;99.90
39503;DHT22;26970;49.900;10.774;2022-08-01T09:09:08;24.80;99.90
39503;DHT22;26970;49.900;10.774;2022-08-01T09:11:39;25.00;99.90
39503;DHT22;26970;49.900;10.774;2022-08-01T09:14:16;25.30;99.90
39503;DHT22;26970;49.900;10.774;2022-08-01T09:17:04;25.30;99.90
39503;DHT22;26970;49.900;10.774;2022-08-01T09:23:01;25.10;99.90
39503;DHT22;26970;49.900;10.774;2022-08-01T09:25:52;24.60;99.90
39503;DHT22;26970;49.900;10.774;2022-08-01T09:28:29;24.10;99.90
39503;DHT22;26970;49.900;10.774;2022-08-01T09:33:55;23.20;99.90
39503;DHT22;26970;49.900;10.774;2022-08-01T09:36:44;22.80;99.90
39503;DHT22;26970;49.900;10.774;2022-08-01T09:39:14;22.70;99.90
39503;DHT22;26970;49.900;10.774;2022-08-01T09:41:40;22.50;99.90
39503;DHT22;26970;49.900;10.774;2022-08-01T09:44:12;22.50;99.90
39503;DHT22;26970;49.900;10.774;2022-08-01T09:46:54;22.60;99.90
39503;DHT22;26970;49.900;10.774;2022-08-01T09:49:35;22.70;99.90
39503;DHT22;26970;49.900;10.774;2022-08-01T09:52:19;23.10;99.90
39503;DHT22;26970;49.900;10.774;2022-08-01T09:54:59;23.20;99.90
39503;DHT22;26970;49.900;10.774;2022-08-01T09:57:30;23.40;99.90
39503;DHT22;26970;49.900;10.774;2022-08-01T09:59:59;23.20;99.90
39503;DHT22;26970;49.900;10.774;2022-08-01T10:02:40;23.20;99.90
39503;DHT22;26970;49.900;10.774;2022-08-01T10:05:09;23.20;99.90
39503;DHT22;26970;49.900;10.774;2022-08-01T10:07:59;23.40;99.90
39503;DHT22;26970;49.900;10.774;2022-08-01T10:10:31;23.40;99.90
39503;DHT22;26970;49.900;10.774;2022-08-01T10:13:19;23.30;99.90
39503;DHT22;26970;49.900;10.774;2022-08-01T10:15:48;23.00;99.90
39503;DHT22;26970;49.900;10.774;2022-08-01T10:18:31;23.00;99.90
39503;DHT22;26970;49.900;10.774;2022-08-01T10:21:00;22.80;99.90
39503;DHT22;26970;49.900;10.774;2022-08-01T10:23:36;22.70;99.90
39503;DHT22;26970;49.900;10.774;2022-08-01T10:26:14;22.70;99.90
39503;DHT22;26970;49.900;10.774;2022-08-01T10:28:47;23.00;99.90
39503;DHT22;26970;49.900;10.774;2022-08-01T10:31:23;23.10;99.90
39503;DHT22;26970;49.900;10.774;2022-08-01T10:33:59;23.00;99.90
39503;DHT22;26970;49.900;10.774;2022-08-01T10:36:31;23.10;99.90
39503;DHT22;26970;49.900;10.774;2022-08-01T10:39:08;23.20;99.90
39503;DHT22;26970;49.900;10.774;2022-08-01T10:41:38;23.40;99.90
39503;DHT22;26970;49.900;10.774;2022-08-01T10:44:28;23.50;99.90
39503;DHT22;26970;49.900;10.774;2022-08-01T10:47:04;24.00;99.90
39503;DHT22;26970;49.900;10.774;2022-08-01T10:49:39;24.00;99.90
39503;DHT22;26970;49.900;10.774;2022-08-01T10:52:16;23.60;99.90
39503;DHT22;26970;49.900;10.774;2022-08-01T10:54:46;23.40;99.90
39503;DHT22;26970;49.900;10.774;2022-08-01T10:57:18;23.40;99.90
39503;DHT22;26970;49.900;10.774;2022-08-01T10:59:53;23.60;99.90
39503;DHT22;26970;49.900;10.774;2022-08-01T11:02:33;23.90;99.90
39503;DHT22;26970;49.900;10.774;2022-08-01T11:05:22;24.10;99.90
39503;DHT22;26970;49.900;10.774;2022-08-01T11:07:52;24.30;99.90
39503;DHT22;26970;49.900;10.774;2022-08-01T11:10:37;24.60;99.90
39503;DHT22;26970;49.900;10.774;2022-08-01T11:16:46;24.70;99.90
39503;DHT22;26970;49.900;10.774;2022-08-01T11:19:14;24.30;99.90
39503;DHT22;26970;49.900;10.774;2022-08-01T11:27:53;24.50;99.90
39503;DHT22;26970;49.900;10.774;2022-08-01T11:30:52;24.90;99.90
39503;DHT22;26970;49.900;10.774;2022-08-01T11:33:56;25.40;99.90
39503;DHT22;26970;49.900;10.774;2022-08-01T11:45:54;26.10;99.90
39503;DHT22;26970;49.900;10.774;2022-08-01T11:48:22;26.60;99.90
39503;DHT22;26970;49.900;10.774;2022-08-01T11:50:50;26.60;99.90
39503;DHT22;26970;49.900;10.774;2022-08-01T11:53:16;26.90;99.90
39503;DHT22;26970;49.900;10.774;2022-08-01T11:55:53;26.80;99.90
39503;DHT22;26970;49.900;10.774;2022-08-01T11:58:24;26.40;99.90
39503;DHT22;26970;49.900;10.774;2022-08-01T12:00:55;25.90;99.90
39503;DHT22;26970;49.900;10.774;2022-08-01T12:03:25;25.90;99.90
39503;DHT22;26970;49.900;10.774;2022-08-01T12:05:53;25.90;99.90
39503;DHT22;26970;49.900;10.774;2022-08-01T12:08:32;25.70;99.90
39503;DHT22;26970;49.900;10.774;2022-08-01T12:11:00;25.70;99.90
39503;DHT22;26970;49.900;10.774;2022-08-01T12:13:26;25.70;99.90
39503;DHT22;26970;49.900;10.774;2022-08-01T12:15:52;25.70;99.90
39503;DHT22;26970;49.900;10.774;2022-08-01T12:18:17;25.70;99.90
39503;DHT22;26970;49.900;10.774;2022-08-01T12:20:45;25.60;99.90
39503;DHT22;26970;49.900;10.774;2022-08-01T12:23:13;25.60;99.90
39503;DHT22;26970;49.900;10.774;2022-08-01T12:25:40;25.30;99.90
39503;DHT22;26970;49.900;10.774;2022-08-01T12:28:08;25.30;99.90
39503;DHT22;26970;49.900;10.774;2022-08-01T12:30:36;25.30;99.90
39503;DHT22;26970;49.900;10.774;2022-08-01T12:33:03;25.20;99.90
39503;DHT22;26970;49.900;10.774;2022-08-01T12:35:30;25.00;99.90
39503;DHT22;26970;49.900;10.774;2022-08-01T12:37:59;24.70;99.90
39503;DHT22;26970;49.900;10.774;2022-08-01T12:40:27;24.30;99.90
39503;DHT22;26970;49.900;10.774;2022-08-01T12:42:59;24.10;99.90
39503;DHT22;26970;49.900;10.774;2022-08-01T12:45:27;23.90;99.90
39503;DHT22;26970;49.900;10.774;2022-08-01T12:47:54;23.80;99.90
39503;DHT22;26970;49.900;10.774;2022-08-01T12:50:22;23.70;99.90
39503;DHT22;26970;49.900;10.774;2022-08-01T12:52:49;23.60;99.90
39503;DHT22;26970;49.900;10.774;2022-08-01T12:57:44;23.70;99.90
39503;DHT22;26970;49.900;10.774;2022-08-01T13:00:23;23.70;99.90
39503;DHT22;26970;49.900;10.774;2022-08-01T13:02:59;23.90;99.90
39503;DHT22;26970;49.900;10.774;2022-08-01T13:05:24;24.00;99.90
39503;DHT22;26970;49.900;10.774;2022-08-01T13:07:50;23.90;99.90
39503;DHT22;26970;49.900;10.774;2022-08-01T13:10:28;24.00;99.90
39503;DHT22;26970;49.900;10.774;2022-08-01T13:12:56;24.30;99.90
39503;DHT22;26970;49.900;10.774;2022-08-01T13:15:30;24.80;99.90
39503;DHT22;26970;49.900;10.774;2022-08-01T13:17:58;24.90;99.90
39503;DHT22;26970;49.900;10.774;2022-08-01T13:22:50;25.30;99.90
39503;DHT22;26970;49.900;10.774;2022-08-01T13:25:17;25.20;99.90
39503;DHT22;26970;49.900;10.774;2022-08-01T13:27:43;25.10;99.90
39503;DHT22;26970;49.900;10.774;2022-08-01T13:30:17;24.90;99.90
39503;DHT22;26970;49.900;10.774;2022-08-01T13:32:44;24.70;99.90
39503;DHT22;26970;49.900;10.774;2022-08-01T13:35:22;24.50;99.90
39503;DHT22;26970;49.900;10.774;2022-08-01T13:37:47;24.60;99.90
39503;DHT22;26970;49.900;10.774;2022-08-01T13:40:26;24.50;99.90
39503;DHT22;26970;49.900;10.774;2022-08-01T13:42:53;24.40;99.90
39503;DHT22;26970;49.900;10.774;2022-08-01T13:45:20;24.20;99.90
39503;DHT22;26970;49.900;10.774;2022-08-01T13:47:45;24.20;99.90
39503;DHT22;26970;49.900;10.774;2022-08-01T13:50:11;24.30;99.90
39503;DHT22;26970;49.900;10.774;2022-08-01T13:52:36;24.50;99.90
39503;DHT22;26970;49.900;10.774;2022-08-01T13:55:02;24.80;99.90
39503;DHT22;26970;49.900;10.774;2022-08-01T13:57:28;25.00;99.90
39503;DHT22;26970;49.900;10.774;2022-08-01T13:59:53;24.90;99.90
39503;DHT22;26970;49.900;10.774;2022-08-01T14:02:19;24.80;99.90
39503;DHT22;26970;49.900;10.774;2022-08-01T14:04:45;25.00;99.90
39503;DHT22;26970;49.900;10.774;2022-08-01T14:07:11;25.00;99.90
39503;DHT22;26970;49.900;10.774;2022-08-01T14:09:37;25.20;99.90
39503;DHT22;26970;49.900;10.774;2022-08-01T14:12:03;25.30;99.90
39503;DHT22;26970;49.900;10.774;2022-08-01T14:14:28;25.10;99.90
39503;DHT22;26970;49.900;10.774;2022-08-01T14:16:55;25.30;99.90
39503;DHT22;26970;49.900;10.774;2022-08-01T14:19:21;25.20;99.90
39503;DHT22;26970;49.900;10.774;2022-08-01T14:21:47;25.30;99.90
39503;DHT22;26970;49.900;10.774;2022-08-01T14:24:12;25.40;99.90
39503;DHT22;26970;49.900;10.774;2022-08-01T14:26:38;25.50;99.90
39503;DHT22;26970;49.900;10.774;2022-08-01T14:29:04;25.60;99.90
39503;DHT22;26970;49.900;10.774;2022-08-01T14:31:29;25.30;99.90
39503;DHT22;26970;49.900;10.774;2022-08-01T14:33:55;25.20;99.90
39503;DHT22;26970;49.900;10.774;2022-08-01T14:36:20;24.90;99.90
39503;DHT22;26970;49.900;10.774;2022-08-01T14:38:46;24.80;99.90
39503;DHT22;26970;49.900;10.774;2022-08-01T14:41:12;24.80;99.90
39503;DHT22;26970;49.900;10.774;2022-08-01T14:43:38;24.80;99.90
39503;DHT22;26970;49.900;10.774;2022-08-01T14:46:03;24.80;99.90
39503;DHT22;26970;49.900;10.774;2022-08-01T14:48:29;25.00;99.90
39503;DHT22;26970;49.900;10.774;2022-08-01T14:50:56;25.20;99.90
39503;DHT22;26970;49.900;10.774;2022-08-01T14:53:21;25.10;99.90
39503;DHT22;26970;49.900;10.774;2022-08-01T14:55:47;25.30;99.90
39503;DHT22;26970;49.900;10.774;2022-08-01T14:58:12;25.40;99.90
39503;DHT22;26970;49.900;10.774;2022-08-01T15:00:38;25.50;99.90
39503;DHT22;26970;49.900;10.774;2022-08-01T15:03:03;25.40;99.90
39503;DHT22;26970;49.900;10.774;2022-08-01T15:05:29;25.30;99.90
39503;DHT22;26970;49.900;10.774;2022-08-01T15:07:55;25.20;99.90
39503;DHT22;26970;49.900;10.774;2022-08-01T15:10:21;25.00;99.90
39503;DHT22;26970;49.900;10.774;2022-08-01T15:12:48;24.90;99.90
39503;DHT22;26970;49.900;10.774;2022-08-01T15:15:13;24.90;99.90
39503;DHT22;26970;49.900;10.774;2022-08-01T15:17:39;24.90;99.90
39503;DHT22;26970;49.900;10.774;2022-08-01T15:20:06;24.90;99.90
39503;DHT22;26970;49.900;10.774;2022-08-01T15:22:32;24.80;99.90
39503;DHT22;26970;49.900;10.774;2022-08-01T15:24:59;24.80;99.90
39503;DHT22;26970;49.900;10.774;2022-08-01T15:27:26;24.80;99.90
39503;DHT22;26970;49.900;10.774;2022-08-01T15:29:53;24.80;99.90
39503;DHT22;26970;49.900;10.774;2022-08-01T15:32:19;24.70;99.90
39503;DHT22;26970;49.900;10.774;2022-08-01T15:34:44;24.70;99.90
39503;DHT22;26970;49.900;10.774;2022-08-01T15:37:10;24.70;99.90
39503;DHT22;26970;49.900;10.774;2022-08-01T15:39:37;24.60;99.90
39503;DHT22;26970;49.900;10.774;2022-08-01T15:42:09;24.70;99.90
39503;DHT22;26970;49.900;10.774;2022-08-01T15:44:35;24.60;99.90
39503;DHT22;26970;49.900;10.774;2022-08-01T15:47:01;24.50;99.90
39503;DHT22;26970;49.900;10.774;2022-08-01T15:49:27;24.50;99.90
39503;DHT22;26970;49.900;10.774;2022-08-01T15:51:53;24.30;99.90
39503;DHT22;26970;49.900;10.774;2022-08-01T15:54:18;24.20;99.90
39503;DHT22;26970;49.900;10.774;2022-08-01T15:56:44;24.20;99.90
39503;DHT22;26970;49.900;10.774;2022-08-01T15:59:10;24.00;99.90
39503;DHT22;26970;49.900;10.774;2022-08-01T16:01:36;24.20;99.90
39503;DHT22;26970;49.900;10.774;2022-08-01T16:04:03;24.30;99.90
39503;DHT22;26970;49.900;10.774;2022-08-01T16:06:29;24.40;99.90
39503;DHT22;26970;49.900;10.774;2022-08-01T16:08:54;24.50;99.90
39503;DHT22;26970;49.900;10.774;2022-08-01T16:11:20;24.60;99.90
39503;DHT22;26970;49.900;10.774;2022-08-01T16:13:48;24.70;99.90
39503;DHT22;26970;49.900;10.774;2022-08-01T16:16:14;24.70;99.90
39503;DHT22;26970;49.900;10.774;2022-08-01T16:18:41;24.70;99.90
39503;DHT22;26970;49.900;10.774;2022-08-01T16:21:07;24.60;99.90
39503;DHT22;26970;49.900;10.774;2022-08-01T16:23:33;24.60;99.90
39503;DHT22;26970;49.900;10.774;2022-08-01T16:25:58;24.50;99.90
39503;DHT22;26970;49.900;10.774;2022-08-01T16:28:24;24.50;99.90
39503;DHT22;26970;49.900;10.774;2022-08-01T16:30:49;24.50;99.90
39503;DHT22;26970;49.900;10.774;2022-08-01T16:33:15;24.50;99.90
39503;DHT22;26970;49.900;10.774;2022-08-01T16:35:41;24.60;99.90
39503;DHT22;26970;49.900;10.774;2022-08-01T16:38:10;24.60;99.90